Time,TemperatureF,DewpointF,PressureIn,WindDirection,WindDirectionDegrees,WindSpeedMPH,WindSpeedGustMPH,Humidity,HourlyPrecipIn,Conditions,Clouds,dailyrainin,SoftwareType,DateUTC
2013-04-07 00:02:00,50.0,37.1,30.17,SSW,203,0.0,1.0,61,0.00,,---,0.00,VWS V13.01,2013-04-07 04:02:00,
2013-04-07 00:32:00,48.7,37.9,30.17,SSW,203,0.0,0.0,66,0.00,,---,0.00,VWS V13.01,2013-04-07 04:32:00,
2013-04-07 01:02:00,52.1,36.0,30.18,SSW,207,1.0,11.0,54,0.00,,---,0.00,VWS V13.01,2013-04-07 05:02:00,
2013-04-07 01:32:00,55.0,37.2,30.18,SSW,209,3.0,11.0,51,0.00,,---,0.00,VWS V13.01,2013-04-07 05:32:00,
2013-04-07 02:02:00,54.1,37.4,30.19,SW,219,2.0,12.0,53,0.00,,---,0.00,VWS V13.01,2013-04-07 06:02:00,
2013-04-07 02:32:00,53.4,37.2,30.19,South,178,0.0,5.0,54,0.00,,---,0.00,VWS V13.01,2013-04-07 06:32:00,
2013-04-07 03:02:00,52.8,36.6,30.18,WNW,290,0.0,6.0,54,0.00,,---,0.00,VWS V13.01,2013-04-07 07:02:00,
2013-04-07 03:32:00,51.5,36.8,30.17,WNW,282,0.0,3.0,57,0.00,,---,0.00,VWS V13.01,2013-04-07 07:32:00,
2013-04-07 04:02:00,49.1,36.7,30.17,WNW,282,0.0,1.0,62,0.00,,---,0.00,VWS V13.01,2013-04-07 08:02:00,
2013-04-07 04:32:00,48.1,36.5,30.18,WNW,282,0.0,1.0,64,0.00,,---,0.00,VWS V13.01,2013-04-07 08:32:00,
2013-04-07 05:02:00,46.7,36.0,30.19,WNW,282,0.0,1.0,66,0.00,,---,0.00,VWS V13.01,2013-04-07 09:02:00,
2013-04-07 05:32:00,44.7,36.2,30.20,WNW,282,0.0,0.0,72,0.00,,---,0.00,VWS V13.01,2013-04-07 09:32:00,
2013-04-07 06:02:00,43.6,35.9,30.20,WNW,282,0.0,1.0,74,0.00,,---,0.00,VWS V13.01,2013-04-07 10:02:00,
2013-04-07 06:32:00,42.4,35.7,30.21,WNW,282,0.0,0.0,77,0.00,,---,0.00,VWS V13.01,2013-04-07 10:32:00,
2013-04-07 07:02:00,41.5,34.8,30.22,WNW,282,0.0,0.0,77,0.00,,---,0.00,VWS V13.01,2013-04-07 11:02:00,
2013-04-07 07:32:00,41.0,35.0,30.22,WNW,282,0.0,2.0,79,0.00,,---,0.00,VWS V13.01,2013-04-07 11:32:00,
2013-04-07 08:02:00,41.9,36.2,30.23,WNW,282,0.0,0.0,80,0.00,,---,0.00,VWS V13.01,2013-04-07 12:02:00,
2013-04-07 08:32:00,44.9,38.5,30.23,WNW,282,0.0,0.0,78,0.00,,---,0.00,VWS V13.01,2013-04-07 12:32:00,
2013-04-07 09:02:00,51.9,42.1,30.23,SW,226,0.0,3.0,69,0.00,,---,0.00,VWS V13.01,2013-04-07 13:02:00,
2013-04-07 09:32:00,55.7,44.5,30.23,NW,314,0.0,7.0,66,0.00,,---,0.00,VWS V13.01,2013-04-07 13:32:00,
2013-04-07 10:02:00,58.6,45.6,30.23,NNW,327,0.0,7.0,62,0.00,,---,0.00,VWS V13.01,2013-04-07 14:02:00,
2013-04-07 10:32:00,60.1,46.6,30.23,NW,318,2.0,12.0,61,0.00,,---,0.00,VWS V13.01,2013-04-07 14:32:00,
2013-04-07 11:02:00,60.7,46.3,30.23,SSE,168,4.0,7.0,59,0.00,,---,0.00,VWS V13.01,2013-04-07 15:02:00,
2013-04-07 11:32:00,62.6,45.7,30.23,SSW,202,5.0,11.0,54,0.00,,---,0.00,VWS V13.01,2013-04-07 15:32:00,
2013-04-07 12:02:00,64.9,46.4,30.22,NNW,344,7.0,7.0,51,0.00,,---,0.00,VWS V13.01,2013-04-07 16:02:00,
2013-04-07 12:32:00,65.4,44.7,30.21,SSE,168,3.0,11.0,47,0.00,,---,0.00,VWS V13.01,2013-04-07 16:32:00,
2013-04-07 13:02:00,66.9,45.5,30.20,South,178,3.0,10.0,46,0.00,,---,0.00,VWS V13.01,2013-04-07 17:02:00,
2013-04-07 13:32:00,68.5,46.3,30.18,SSE,148,1.0,12.0,45,0.00,,---,0.00,VWS V13.01,2013-04-07 17:32:00,
2013-04-07 14:02:00,69.2,45.2,30.16,South,178,2.0,12.0,42,0.00,,---,0.00,VWS V13.01,2013-04-07 18:02:00,
2013-04-07 14:32:00,70.2,45.4,30.15,West,274,0.0,14.0,41,0.00,,---,0.00,VWS V13.01,2013-04-07 18:32:00,
2013-04-07 15:02:00,70.6,44.5,30.13,SSW,211,3.0,12.0,39,0.00,,---,0.00,VWS V13.01,2013-04-07 19:02:00,
2013-04-07 15:32:00,71.2,44.3,30.12,South,178,2.0,10.0,38,0.00,,---,0.00,VWS V13.01,2013-04-07 19:32:00,
2013-04-07 16:02:00,71.5,43.9,30.11,NW,319,0.0,11.0,37,0.00,,---,0.00,VWS V13.01,2013-04-07 20:02:00,
2013-04-07 16:32:00,71.7,43.3,30.11,SSW,205,1.0,10.0,36,0.00,,---,0.00,VWS V13.01,2013-04-07 20:32:00,
2013-04-07 17:02:00,71.9,43.5,30.11,SSE,151,5.0,10.0,36,0.00,,---,0.00,VWS V13.01,2013-04-07 21:02:00,
2013-04-07 17:32:00,71.2,43.6,30.10,NW,312,2.0,10.0,37,0.00,,---,0.00,VWS V13.01,2013-04-07 21:32:00,
2013-04-07 18:02:00,71.4,43.8,30.10,NW,323,1.0,9.0,37,0.00,,---,0.00,VWS V13.01,2013-04-07 22:02:00,
2013-04-07 18:32:00,71.1,44.2,30.10,South,191,1.0,7.0,38,0.00,,---,0.00,VWS V13.01,2013-04-07 22:32:00,
2013-04-07 19:02:00,69.9,44.5,30.09,SW,226,3.0,10.0,40,0.00,,---,0.00,VWS V13.01,2013-04-07 23:02:00,
2013-04-07 19:32:00,68.3,44.3,30.10,WNW,282,0.0,5.0,42,0.00,,---,0.00,VWS V13.01,2013-04-07 23:32:00,
2013-04-07 20:02:00,66.0,44.7,30.10,WNW,299,0.0,0.0,46,0.00,,---,0.00,VWS V13.01,2013-04-08 00:02:00,
2013-04-07 20:32:00,63.6,45.2,30.11,WNW,299,0.0,0.0,51,0.00,,---,0.00,VWS V13.01,2013-04-08 00:32:00,
2013-04-07 21:02:00,62.1,45.8,30.11,WNW,299,0.0,0.0,55,0.00,,---,0.00,VWS V13.01,2013-04-08 01:02:00,
2013-04-07 21:32:00,60.5,46.1,30.12,WNW,299,0.0,0.0,59,0.00,,---,0.00,VWS V13.01,2013-04-08 01:32:00,
2013-04-07 22:02:00,59.0,45.6,30.12,WNW,299,0.0,0.0,61,0.00,,---,0.00,VWS V13.01,2013-04-08 02:02:00,
2013-04-07 22:32:00,57.4,45.8,30.12,WNW,299,0.0,0.0,65,0.00,,---,0.00,VWS V13.01,2013-04-08 02:32:00,
2013-04-07 23:02:00,55.9,45.1,30.11,WNW,299,0.0,0.0,67,0.00,,---,0.00,VWS V13.01,2013-04-08 03:02:00,
2013-04-07 23:32:00,54.5,45.3,30.11,WNW,299,0.0,1.0,71,0.00,,---,0.00,VWS V13.01,2013-04-08 03:32:00,